Dale, Texas
Current Conditions -  °F | °C
As of 6:53 AM on Thursday 27 Nov 2014 (Local Time) from KAUS Reporting Station
Clear Clear  
Wind Chill: 35°   Ceiling: Unl
Heat Index: 41°   Visibility: 10mi
Dew Point: 35°   Wind: 9mph
Humidity: 79%   Direction: 10°N
Pressure: 30.48"   Gusts: NA
Location:  29.93°N, 97.57°W
Report Text: KAUS 271253Z 01008KT 10SM CLR 05/02 A3048 RMK AO2 SLP322 T00500017
Loading
Personal Weather Stations






























Interactive Weather Map New forecast layout! Learn more

10-Day Weather Forecast

Advertisements
Track Severe Weather on mobile